createdAt,value
2019-05-28T00:02:12.810Z,219.97
2019-05-28T00:04:42.263Z,208.70
2019-05-28T00:07:12.075Z,201.77
2019-05-28T00:09:43.692Z,202.63
2019-05-28T00:12:13.093Z,209.27
2019-05-28T00:14:44.433Z,211.77
2019-05-28T00:17:13.635Z,209.07
2019-05-28T00:19:43.674Z,207.17
2019-05-28T00:22:13.514Z,206.53
2019-05-28T00:24:45.504Z,213.60
2019-05-28T00:27:16.576Z,205.07
2019-05-28T00:29:48.096Z,216.60
2019-05-28T00:32:18.946Z,224.17
2019-05-28T00:34:48.545Z,211.27
2019-05-28T00:37:18.526Z,209.77
2019-05-28T00:39:48.896Z,214.60
2019-05-28T00:42:18.838Z,216.07
2019-05-28T00:44:48.279Z,211.87
2019-05-28T00:47:18.556Z,217.70
2019-05-28T00:49:49.746Z,237.33
2019-05-28T00:52:19.491Z,211.83
2019-05-28T00:54:52.219Z,216.17
2019-05-28T00:57:22.566Z,219.20
2019-05-28T00:59:57.014Z,219.23
2019-05-28T01:02:26.960Z,213.47
2019-05-28T01:04:56.390Z,216.50
2019-05-28T01:07:26.182Z,211.30
2019-05-28T01:09:56.052Z,212.00
2019-05-28T01:12:25.506Z,216.17
2019-05-28T01:14:55.235Z,213.60
2019-05-28T01:17:25.060Z,213.45
2019-05-28T01:19:56.565Z,202.20
2019-05-28T01:22:27.721Z,209.30
2019-05-28T01:24:58.199Z,212.73
2019-05-28T01:27:27.615Z,209.93
2019-05-28T01:30:00.414Z,208.97
2019-05-28T01:32:30.219Z,211.85
2019-05-28T01:34:59.696Z,212.87
2019-05-28T01:37:29.540Z,219.23
2019-05-28T01:39:59.331Z,223.67
2019-05-28T01:42:28.802Z,224.47
2019-05-28T01:44:58.253Z,225.50
2019-05-28T01:47:27.801Z,216.93
2019-05-28T01:49:57.244Z,221.30
2019-05-28T01:52:26.681Z,217.65
2019-05-28T01:54:56.472Z,204.53
2019-05-28T01:57:27.719Z,205.57
2019-05-28T01:59:57.829Z,203.77
2019-05-28T02:02:27.733Z,202.00
2019-05-28T02:04:57.430Z,203.73
2019-05-28T02:07:32.253Z,202.93
2019-05-28T02:10:01.701Z,209.97
2019-05-28T02:12:31.195Z,206.37
2019-05-28T02:15:00.916Z,204.37
2019-05-28T02:17:31.943Z,205.32
2019-05-28T02:20:02.752Z,207.67
2019-05-28T02:22:32.212Z,207.10
2019-05-28T02:25:02.082Z,212.30
2019-05-28T02:27:31.513Z,210.63
2019-05-28T02:30:01.029Z,216.13
2019-05-28T02:32:31.106Z,216.27
2019-05-28T02:35:00.601Z,209.57
2019-05-28T02:37:38.806Z,208.73
2019-05-28T02:40:13.081Z,209.62
2019-05-28T02:42:42.980Z,215.77
2019-05-28T02:45:14.203Z,205.77
2019-05-28T02:47:43.689Z,209.07
2019-05-28T02:50:14.448Z,205.87
2019-05-28T02:52:44.812Z,207.53
2019-05-28T02:55:14.880Z,206.05
2019-05-28T02:57:46.963Z,209.33
2019-05-28T03:00:20.470Z,205.54
2019-05-28T03:02:50.002Z,212.97
2019-05-28T03:05:19.744Z,202.72
2019-05-28T03:07:55.721Z,215.18
2019-05-28T03:10:59.887Z,207.80
2019-05-28T03:13:07.905Z,204.67
2019-05-28T03:15:43.383Z,202.17
2019-05-28T03:18:13.752Z,198.40
2019-05-28T03:20:50.616Z,205.98
2019-05-28T03:23:22.450Z,212.53
2019-05-28T03:25:52.560Z,205.52
2019-05-28T03:28:24.960Z,207.12
2019-05-28T03:30:54.397Z,202.47
2019-05-28T03:33:27.080Z,208.50
2019-05-28T03:35:59.133Z,200.70
2019-05-28T03:38:31.799Z,214.10
2019-05-28T03:41:02.268Z,198.07
2019-05-28T03:43:32.485Z,212.90
2019-05-28T03:46:03.384Z,202.97
2019-05-28T03:48:38.531Z,219.30
2019-05-28T03:51:08.360Z,201.53
2019-05-28T03:53:42.689Z,206.33
2019-05-28T03:56:13.391Z,202.00
2019-05-28T03:58:42.760Z,205.37
2019-05-28T04:01:12.700Z,200.37
2019-05-28T04:03:43.340Z,201.60
2019-05-28T04:06:13.842Z,205.10
2019-05-28T04:08:44.233Z,202.40
2019-05-28T04:11:14.157Z,212.40
2019-05-28T04:13:44.974Z,197.77
2019-05-28T04:16:17.464Z,195.90
2019-05-28T04:18:47.270Z,197.23
2019-05-28T04:21:18.204Z,206.13
2019-05-28T04:23:48.172Z,201.73
2019-05-28T04:26:24.576Z,205.80
2019-05-28T04:28:54.017Z,199.37
2019-05-28T04:31:24.095Z,200.37
2019-05-28T04:33:53.715Z,202.27
2019-05-28T04:36:23.140Z,219.83
2019-05-28T04:38:53.535Z,213.63
2019-05-28T04:41:23.156Z,216.82
2019-05-28T04:43:52.589Z,219.30
2019-05-28T04:46:27.466Z,199.68
2019-05-28T04:48:57.284Z,210.33
2019-05-28T04:51:27.761Z,203.27
2019-05-28T04:53:57.450Z,203.83
2019-05-28T04:56:28.885Z,204.57
2019-05-28T04:59:03.717Z,207.73
2019-05-28T05:01:32.005Z,210.00
2019-05-28T05:04:01.909Z,209.97
2019-05-28T05:06:32.628Z,216.27
2019-05-28T05:09:02.068Z,204.82
2019-05-28T05:11:31.642Z,219.47
2019-05-28T05:14:01.565Z,202.80
2019-05-28T05:16:31.009Z,201.20
2019-05-28T05:19:00.548Z,197.80
2019-05-28T05:21:31.130Z,197.60
2019-05-28T05:24:01.527Z,193.87
2019-05-28T05:26:31.910Z,193.45
2019-05-28T05:29:01.364Z,195.27
2019-05-28T05:31:30.912Z,194.72
2019-05-28T05:34:00.395Z,204.27
2019-05-28T05:36:29.853Z,191.87
2019-05-28T05:39:05.574Z,196.57
2019-05-28T05:41:36.521Z,189.47
2019-05-28T05:44:06.897Z,190.50
2019-05-28T05:46:39.475Z,198.80
2019-05-28T05:49:09.413Z,190.60
2019-05-28T05:51:48.092Z,194.87
2019-05-28T05:54:18.264Z,198.03
2019-05-28T05:56:50.321Z,197.63
2019-05-28T05:59:19.748Z,197.17
2019-05-28T06:01:49.197Z,199.93
2019-05-28T06:04:18.711Z,195.67
2019-05-28T06:06:48.176Z,191.93
2019-05-28T06:09:18.273Z,195.80
2019-05-28T06:11:53.589Z,195.70
2019-05-28T06:14:23.812Z,206.40
2019-05-28T06:16:53.286Z,203.23
2019-05-28T06:19:23.120Z,197.80
2019-05-28T06:21:52.552Z,205.53
2019-05-28T06:24:21.995Z,196.07
2019-05-28T06:26:52.212Z,199.80
2019-05-28T06:29:21.661Z,199.00
2019-05-28T06:31:51.294Z,191.97
2019-05-28T06:34:22.977Z,193.83
2019-05-28T06:36:53.892Z,197.63
2019-05-28T06:39:23.317Z,192.57
2019-05-28T06:41:53.192Z,187.03
2019-05-28T06:44:22.940Z,190.17
2019-05-28T06:46:54.384Z,193.30
2019-05-28T06:49:24.189Z,196.57
2019-05-28T06:51:53.625Z,191.07
2019-05-28T06:54:23.061Z,195.37
2019-05-28T06:56:54.148Z,183.67
2019-05-28T06:59:23.969Z,188.73
2019-05-28T07:01:55.297Z,183.10
2019-05-28T07:04:32.693Z,192.57
2019-05-28T07:06:59.126Z,178.97
2019-05-28T07:09:28.435Z,188.40
2019-05-28T07:12:01.355Z,190.80
2019-05-28T07:14:34.758Z,186.43
2019-05-28T07:17:04.917Z,183.73
2019-05-28T07:19:34.742Z,182.12
2019-05-28T07:22:04.192Z,186.82
2019-05-28T07:24:33.634Z,189.30
2019-05-28T07:27:04.196Z,190.37
2019-05-28T07:29:33.985Z,187.30
2019-05-28T07:32:03.500Z,189.07
2019-05-28T07:34:34.694Z,199.93
2019-05-28T07:37:08.507Z,185.80
2019-05-28T07:39:38.293Z,191.20
2019-05-28T07:42:08.256Z,189.33
2019-05-28T07:44:37.857Z,187.47
2019-05-28T07:47:12.549Z,190.10
2019-05-28T07:49:42.060Z,191.83
2019-05-28T07:52:11.562Z,179.47
2019-05-28T07:54:40.989Z,181.10
2019-05-28T07:57:14.551Z,180.97
2019-05-28T07:59:45.591Z,182.40
2019-05-28T08:02:16.260Z,180.90
2019-05-28T08:04:47.632Z,180.37
2019-05-28T08:07:18.270Z,179.47
2019-05-28T08:09:47.763Z,175.77
2019-05-28T08:12:19.964Z,184.87
2019-05-28T08:14:49.388Z,177.03
2019-05-28T08:17:19.783Z,178.73
2019-05-28T08:19:49.422Z,177.72
2019-05-28T08:22:19.460Z,177.67
2019-05-28T08:24:48.957Z,181.83
2019-05-28T08:27:19.344Z,173.03
2019-05-28T08:29:49.008Z,176.90
2019-05-28T08:32:18.571Z,171.97
2019-05-28T08:35:04.185Z,173.77
2019-05-28T08:37:20.469Z,169.90
2019-05-28T08:39:50.719Z,171.03
2019-05-28T08:42:21.576Z,171.90
2019-05-28T08:44:51.380Z,169.10
2019-05-28T08:47:21.704Z,169.17
2019-05-28T08:49:53.786Z,168.90
2019-05-28T08:52:25.548Z,165.33
2019-05-28T08:54:56.226Z,165.33
2019-05-28T08:57:25.721Z,166.47
2019-05-28T08:59:56.670Z,166.63
2019-05-28T09:02:28.289Z,168.70
2019-05-28T09:04:58.174Z,172.30
2019-05-28T09:07:31.790Z,170.22
2019-05-28T09:10:02.046Z,181.75
2019-05-28T09:12:34.074Z,176.67
2019-05-28T09:15:03.460Z,178.90
2019-05-28T09:17:32.906Z,173.50
2019-05-28T09:20:02.959Z,172.50
2019-05-28T09:22:32.394Z,175.30
2019-05-28T09:25:01.872Z,184.87
2019-05-28T09:27:32.581Z,179.00
2019-05-28T09:30:01.953Z,189.43
2019-05-28T09:32:32.425Z,186.43
2019-05-28T09:35:03.191Z,179.37
2019-05-28T09:37:33.061Z,174.38
2019-05-28T09:40:03.420Z,187.60
2019-05-28T09:42:33.202Z,184.80
2019-05-28T09:45:19.374Z,192.80
2019-05-28T09:47:33.854Z,179.20
2019-05-28T09:50:04.497Z,188.37
2019-05-28T09:52:52.991Z,181.12
2019-05-28T09:55:09.638Z,188.33
2019-05-28T09:57:47.266Z,185.00
2019-05-28T10:00:15.233Z,182.50
2019-05-28T10:02:45.352Z,182.83
2019-05-28T10:05:17.893Z,185.45
2019-05-28T10:07:47.737Z,183.80
2019-05-28T10:10:18.872Z,184.67
2019-05-28T10:12:52.615Z,179.43
2019-05-28T10:15:22.702Z,179.47
2019-05-28T10:17:57.062Z,189.17
2019-05-28T10:20:29.680Z,185.83
2019-05-28T10:23:01.841Z,185.43
2019-05-28T10:25:31.240Z,187.93
2019-05-28T10:28:02.395Z,179.53
2019-05-28T10:30:32.009Z,189.53
2019-05-28T10:33:01.465Z,189.93
2019-05-28T10:35:34.051Z,189.23
2019-05-28T10:38:04.126Z,186.23
2019-05-28T10:40:34.637Z,187.53
2019-05-28T10:43:07.559Z,186.53
2019-05-28T10:45:37.878Z,185.50
2019-05-28T10:48:07.986Z,190.63
2019-05-28T10:50:37.459Z,196.53
2019-05-28T10:53:07.727Z,193.10
2019-05-28T10:55:38.325Z,194.47
2019-05-28T10:58:08.402Z,191.53
2019-05-28T11:00:38.146Z,194.40
2019-05-28T11:03:09.587Z,196.40
2019-05-28T11:05:39.317Z,196.20
2019-05-28T11:08:10.573Z,195.23
2019-05-28T11:10:42.070Z,214.90
2019-05-28T11:13:13.566Z,199.27
2019-05-28T11:15:48.156Z,205.60
2019-05-28T11:18:19.030Z,205.77
2019-05-28T11:20:49.912Z,201.97
2019-05-28T11:23:21.364Z,198.70
2019-05-28T11:25:51.240Z,203.33
2019-05-28T11:28:22.204Z,210.57
2019-05-28T11:30:51.672Z,204.47
2019-05-28T11:33:21.890Z,196.80
2019-05-28T11:35:52.244Z,194.53
2019-05-28T11:38:21.873Z,199.23
2019-05-28T11:40:51.305Z,207.47
2019-05-28T11:43:21.921Z,199.70
2019-05-28T11:45:51.406Z,191.83
2019-05-28T11:48:21.210Z,207.93
2019-05-28T11:50:51.077Z,193.20
2019-05-28T11:53:21.514Z,189.63
2019-05-28T11:55:52.304Z,192.10
2019-05-28T11:58:23.600Z,191.32
2019-05-28T12:00:58.709Z,186.50
2019-05-28T12:03:28.488Z,181.63
2019-05-28T12:06:00.034Z,185.37
2019-05-28T12:08:31.240Z,184.97
2019-05-28T12:11:01.466Z,177.77
2019-05-28T12:13:32.079Z,183.07
2019-05-28T12:16:03.493Z,184.83
2019-05-28T12:18:33.525Z,186.00
2019-05-28T12:21:03.325Z,190.50
2019-05-28T12:23:33.560Z,182.93
2019-05-28T12:26:08.186Z,183.00
2019-05-28T12:28:38.712Z,181.73
2019-05-28T12:31:08.239Z,183.78
2019-05-28T12:33:40.130Z,182.37
2019-05-28T12:36:13.631Z,178.83
2019-05-28T12:38:43.020Z,177.10
2019-05-28T12:41:13.709Z,176.67
2019-05-28T12:43:50.496Z,178.02
2019-05-28T12:46:21.745Z,194.27
2019-05-28T12:48:53.105Z,179.23
2019-05-28T12:51:27.390Z,179.60
2019-05-28T12:53:59.224Z,170.90
2019-05-28T12:56:30.836Z,177.83
2019-05-28T12:59:00.910Z,171.17
2019-05-28T13:01:32.996Z,189.10
2019-05-28T13:04:07.006Z,171.17
2019-05-28T13:06:36.789Z,179.00
2019-05-28T13:09:08.417Z,189.10
2019-05-28T13:11:40.371Z,179.63
2019-05-28T13:14:11.843Z,176.50
2019-05-28T13:16:41.270Z,188.07
2019-05-28T13:19:10.849Z,180.77
2019-05-28T13:21:40.795Z,185.20
2019-05-28T13:24:10.286Z,175.83
2019-05-28T13:26:40.596Z,183.77
2019-05-28T13:29:12.217Z,181.97
2019-05-28T13:31:43.274Z,187.53
2019-05-28T13:34:13.253Z,177.00
2019-05-28T13:36:50.998Z,179.00
2019-05-28T13:39:20.850Z,183.30
2019-05-28T13:41:50.284Z,177.90
2019-05-28T13:44:20.414Z,180.73
2019-05-28T13:46:51.903Z,177.77
2019-05-28T13:49:21.419Z,174.93
2019-05-28T13:51:53.024Z,178.90
2019-05-28T13:54:25.565Z,186.17
2019-05-28T13:56:58.016Z,176.70
2019-05-28T13:59:32.272Z,192.60
2019-05-28T14:02:05.588Z,176.00
2019-05-28T14:04:35.262Z,177.80
2019-05-28T14:07:05.575Z,177.17
2019-05-28T14:09:40.213Z,188.78
2019-05-28T14:12:10.385Z,191.43
2019-05-28T14:14:46.338Z,181.83
2019-05-28T14:17:16.276Z,187.65
2019-05-28T14:19:46.487Z,190.00
2019-05-28T14:22:33.015Z,183.60
2019-05-28T14:24:49.543Z,176.10
2019-05-28T14:27:20.895Z,184.90
2019-05-28T14:29:56.603Z,182.23
2019-05-28T14:32:25.992Z,180.90
2019-05-28T14:34:56.429Z,173.73
2019-05-28T14:37:26.528Z,183.00
2019-05-28T14:39:58.689Z,177.07
2019-05-28T14:42:31.819Z,187.00
2019-05-28T14:45:02.195Z,181.90
2019-05-28T14:47:33.594Z,213.70
2019-05-28T14:50:07.398Z,180.17
2019-05-28T14:52:43.264Z,187.90
2019-05-28T14:55:13.562Z,187.40
2019-05-28T14:57:44.229Z,187.27
2019-05-28T15:00:18.803Z,181.93
2019-05-28T15:02:49.515Z,189.62
2019-05-28T15:05:25.115Z,186.27
2019-05-28T15:07:55.193Z,189.60
2019-05-28T15:10:26.694Z,186.80
2019-05-28T15:13:01.030Z,180.87
2019-05-28T15:15:36.222Z,182.60
2019-05-28T15:18:11.417Z,179.68
2019-05-28T15:20:41.692Z,183.40
2019-05-28T15:23:11.776Z,185.07
2019-05-28T15:25:41.200Z,199.20
2019-05-28T15:28:17.143Z,183.83
2019-05-28T15:30:52.216Z,187.70
2019-05-28T15:33:29.229Z,189.72
2019-05-28T15:36:03.503Z,193.47
2019-05-28T15:38:36.656Z,186.07
2019-05-28T15:41:11.048Z,185.80
2019-05-28T15:43:40.438Z,189.80
2019-05-28T15:46:16.826Z,177.77
2019-05-28T15:48:48.811Z,189.55
2019-05-28T15:51:19.746Z,195.28
2019-05-28T15:53:50.683Z,189.97
2019-05-28T15:56:21.454Z,185.37
2019-05-28T15:58:53.196Z,188.90
2019-05-28T16:01:23.393Z,184.35
2019-05-28T16:03:56.401Z,188.90
2019-05-28T16:06:33.531Z,181.57
2019-05-28T16:09:06.209Z,180.77
2019-05-28T16:11:38.320Z,192.43
2019-05-28T16:14:08.947Z,177.33
2019-05-28T16:16:43.295Z,182.87
2019-05-28T16:19:14.717Z,188.80
2019-05-28T16:21:44.089Z,177.63
2019-05-28T16:24:14.824Z,180.93
2019-05-28T16:26:44.341Z,178.13
2019-05-28T16:29:15.079Z,179.13
2019-05-28T16:31:46.707Z,173.90
2019-05-28T16:34:19.447Z,187.70
2019-05-28T16:36:51.026Z,178.97
2019-05-28T16:39:20.718Z,182.10
2019-05-28T16:41:52.492Z,186.00
2019-05-28T16:44:24.631Z,185.63
2019-05-28T16:47:16.081Z,184.80
2019-05-28T16:49:33.223Z,186.27
2019-05-28T16:52:09.275Z,187.30
2019-05-28T16:54:39.920Z,176.70
2019-05-28T16:57:09.361Z,185.20
2019-05-28T16:59:40.023Z,176.77
2019-05-28T17:02:09.572Z,174.47
2019-05-28T17:04:39.012Z,176.17
2019-05-28T17:07:09.513Z,184.73
2019-05-28T17:09:40.228Z,183.57
2019-05-28T17:12:10.106Z,185.70
2019-05-28T17:14:39.638Z,180.70
2019-05-28T17:17:09.800Z,178.87
2019-05-28T17:19:39.241Z,174.45
2019-05-28T17:22:10.387Z,185.67
2019-05-28T17:24:39.853Z,183.70
2019-05-28T17:27:09.755Z,179.23
2019-05-28T17:29:39.893Z,174.05
2019-05-28T17:32:09.964Z,177.67
2019-05-28T17:34:39.401Z,184.47
2019-05-28T17:37:09.092Z,179.53
2019-05-28T17:39:40.730Z,174.23
2019-05-28T17:42:10.156Z,183.62
2019-05-28T17:44:39.586Z,177.87
2019-05-28T17:47:09.053Z,185.77
2019-05-28T17:49:38.641Z,182.60
2019-05-28T17:52:08.127Z,190.67
2019-05-28T17:54:37.616Z,184.00
2019-05-28T17:57:15.528Z,184.70
2019-05-28T17:59:44.987Z,189.00
2019-05-28T18:02:15.789Z,194.07
2019-05-28T18:04:45.398Z,186.88
2019-05-28T18:07:16.324Z,192.50
2019-05-28T18:09:46.073Z,177.43
2019-05-28T18:12:17.196Z,181.02
2019-05-28T18:14:46.633Z,179.30
2019-05-28T18:17:24.882Z,190.62
2019-05-28T18:20:00.125Z,183.53
2019-05-28T18:22:32.922Z,188.30
2019-05-28T18:25:04.221Z,182.60
2019-05-28T18:27:39.147Z,178.15
2019-05-28T18:30:10.547Z,181.37
2019-05-28T18:32:41.654Z,180.13
2019-05-28T18:35:12.022Z,183.27
2019-05-28T18:37:41.544Z,188.93
2019-05-28T18:40:15.800Z,185.97
2019-05-28T18:42:45.169Z,182.80
2019-05-28T18:45:18.591Z,194.52
2019-05-28T18:47:50.581Z,187.27
2019-05-28T18:50:20.006Z,191.07
2019-05-28T18:52:50.423Z,196.50
2019-05-28T18:55:23.465Z,189.60
2019-05-28T18:57:52.078Z,195.87
2019-05-28T19:00:21.828Z,185.52
2019-05-28T19:02:51.566Z,187.53
2019-05-28T19:05:21.128Z,189.80
2019-05-28T19:07:50.608Z,185.77
2019-05-28T19:10:21.696Z,182.47
2019-05-28T19:12:54.430Z,189.70
2019-05-28T19:15:23.943Z,188.27
2019-05-28T19:17:54.066Z,188.97
2019-05-28T19:20:23.802Z,186.70
2019-05-28T19:22:54.019Z,185.30
2019-05-28T19:25:23.839Z,188.73
2019-05-28T19:27:53.975Z,198.70
2019-05-28T19:30:33.736Z,186.23
2019-05-28T19:33:06.344Z,181.50
2019-05-28T19:35:36.117Z,183.83
2019-05-28T19:38:11.685Z,183.50
2019-05-28T19:40:44.800Z,180.10
2019-05-28T19:43:19.013Z,184.70
2019-05-28T19:45:48.624Z,195.40
2019-05-28T19:48:19.099Z,188.32
2019-05-28T19:50:49.188Z,194.57
2019-05-28T19:53:18.984Z,190.97
2019-05-28T19:55:48.440Z,204.43
2019-05-28T19:58:18.221Z,194.83
2019-05-28T20:00:47.741Z,178.67
2019-05-28T20:03:18.892Z,182.25
2019-05-28T20:05:48.325Z,187.73
2019-05-28T20:08:19.800Z,181.52
2019-05-28T20:10:50.762Z,187.00
2019-05-28T20:13:21.089Z,183.07
2019-05-28T20:15:50.484Z,194.40
2019-05-28T20:18:26.587Z,187.13
2019-05-28T20:20:51.663Z,188.60
2019-05-28T20:23:22.644Z,184.05
2019-05-28T20:25:54.434Z,185.15
2019-05-28T20:28:25.757Z,184.30
2019-05-28T20:30:55.365Z,179.97
2019-05-28T20:33:25.121Z,184.90
2019-05-28T20:35:57.041Z,196.30
2019-05-28T20:38:27.877Z,183.90
2019-05-28T20:40:58.390Z,182.80
2019-05-28T20:43:28.328Z,186.40
2019-05-28T20:45:58.245Z,181.30
2019-05-28T20:48:28.291Z,187.97
2019-05-28T20:51:08.801Z,185.80
2019-05-28T20:53:36.377Z,179.72
2019-05-28T20:56:07.637Z,189.67
2019-05-28T20:58:40.541Z,184.93
2019-05-28T21:01:08.821Z,181.60
2019-05-28T21:03:39.177Z,179.72
2019-05-28T21:06:10.220Z,184.57
2019-05-28T21:08:42.069Z,186.53
2019-05-28T21:11:12.498Z,185.93
2019-05-28T21:13:43.233Z,186.83
2019-05-28T21:16:12.681Z,191.00
2019-05-28T21:18:42.681Z,187.87
2019-05-28T21:21:14.104Z,186.67
2019-05-28T21:23:43.744Z,185.87
2019-05-28T21:26:13.618Z,183.70
2019-05-28T21:28:43.883Z,191.00
2019-05-28T21:31:13.265Z,184.33
2019-05-28T21:33:50.707Z,185.53
2019-05-28T21:36:25.388Z,194.70
2019-05-28T21:38:57.410Z,194.27
2019-05-28T21:41:28.637Z,194.67
2019-05-28T21:44:00.090Z,192.83
2019-05-28T21:46:36.465Z,197.77
2019-05-28T21:49:07.558Z,187.97
2019-05-28T21:51:36.956Z,202.67
2019-05-28T21:54:12.893Z,191.27
2019-05-28T21:56:46.617Z,187.72
2019-05-28T21:59:21.265Z,196.78
2019-05-28T22:01:52.113Z,188.50
2019-05-28T22:04:23.192Z,192.20
2019-05-28T22:06:52.592Z,199.77
2019-05-28T22:09:24.819Z,194.85
2019-05-28T22:11:55.466Z,195.20
2019-05-28T22:14:28.628Z,191.33
2019-05-28T22:16:59.397Z,189.90
2019-05-28T22:19:39.354Z,191.13
2019-05-28T22:22:11.354Z,196.30
2019-05-28T22:24:41.170Z,182.27
2019-05-28T22:27:10.938Z,183.97
2019-05-28T22:29:41.784Z,186.00
2019-05-28T22:32:11.539Z,187.40
2019-05-28T22:34:41.293Z,186.90
2019-05-28T22:37:10.731Z,185.77
2019-05-28T22:39:41.660Z,186.80
2019-05-28T22:42:14.347Z,194.45
2019-05-28T22:44:44.220Z,189.70
2019-05-28T22:47:14.881Z,189.77
2019-05-28T22:49:44.305Z,186.37
2019-05-28T22:52:15.827Z,187.83
2019-05-28T22:54:45.229Z,187.07
2019-05-28T22:57:16.025Z,190.40
2019-05-28T22:59:45.498Z,188.73
2019-05-28T23:02:17.251Z,200.25
2019-05-28T23:04:47.017Z,191.67
2019-05-28T23:07:19.493Z,191.80
2019-05-28T23:09:49.555Z,190.20
2019-05-28T23:12:19.522Z,187.23
2019-05-28T23:14:50.968Z,187.40
2019-05-28T23:17:20.340Z,195.77
2019-05-28T23:19:49.757Z,192.67
2019-05-28T23:22:20.140Z,197.07
2019-05-28T23:24:49.921Z,197.23
2019-05-28T23:27:24.886Z,193.57
2019-05-28T23:29:54.325Z,192.63
2019-05-28T23:32:25.610Z,202.63
2019-05-28T23:34:56.390Z,194.73
2019-05-28T23:37:32.769Z,189.97
2019-05-28T23:40:03.118Z,195.30
2019-05-28T23:42:33.324Z,196.67
2019-05-28T23:45:03.928Z,195.87
2019-05-28T23:47:33.584Z,195.77
2019-05-28T23:50:04.361Z,199.73
2019-05-28T23:52:33.708Z,192.10
2019-05-28T23:55:03.112Z,194.82
2019-05-28T23:57:33.677Z,196.37
